sensor_id;sensor_type;location;lat;lon;timestamp;pressure;altitude;pressure_sealevel;temperature;humidity
20971;BME280;10644;48.834;10.088;2023-06-22T00:00:01;96733.16;;;23.96;65.25
20971;BME280;10644;48.834;10.088;2023-06-22T00:02:33;96749.19;;;24.09;65.15
20971;BME280;10644;48.834;10.088;2023-06-22T00:04:58;96739.19;;;24.13;65.16
20971;BME280;10644;48.834;10.088;2023-06-22T00:07:24;96738.22;;;24.14;64.25
20971;BME280;10644;48.834;10.088;2023-06-22T00:09:49;96739.03;;;24.14;64.69
20971;BME280;10644;48.834;10.088;2023-06-22T00:12:15;96760.47;;;24.50;63.78
20971;BME280;10644;48.834;10.088;2023-06-22T00:14:40;96744.03;;;24.72;62.79
20971;BME280;10644;48.834;10.088;2023-06-22T00:17:06;96727.94;;;24.83;62.28
20971;BME280;10644;48.834;10.088;2023-06-22T00:19:36;96741.22;;;24.89;62.24
20971;BME280;10644;48.834;10.088;2023-06-22T00:22:19;96727.28;;;24.89;62.21
20971;BME280;10644;48.834;10.088;2023-06-22T00:24:54;96731.31;;;25.07;61.76
20971;BME280;10644;48.834;10.088;2023-06-22T00:27:27;96727.56;;;25.02;61.78
20971;BME280;10644;48.834;10.088;2023-06-22T00:29:55;96735.13;;;24.89;62.49
20971;BME280;10644;48.834;10.088;2023-06-22T00:32:23;96707.06;;;24.67;62.88
20971;BME280;10644;48.834;10.088;2023-06-22T00:34:49;96726.09;;;24.45;63.55
20971;BME280;10644;48.834;10.088;2023-06-22T00:37:15;96728.03;;;24.51;63.75
20971;BME280;10644;48.834;10.088;2023-06-22T00:39:42;96716.63;;;24.28;64.06
20971;BME280;10644;48.834;10.088;2023-06-22T00:42:13;96730.69;;;24.35;64.07
20971;BME280;10644;48.834;10.088;2023-06-22T00:44:41;96729.34;;;24.63;63.56
20971;BME280;10644;48.834;10.088;2023-06-22T00:47:06;96712.16;;;24.60;63.08
20971;BME280;10644;48.834;10.088;2023-06-22T00:49:32;96712.78;;;24.62;63.12
20971;BME280;10644;48.834;10.088;2023-06-22T00:51:58;96733.28;;;24.67;63.18
20971;BME280;10644;48.834;10.088;2023-06-22T00:54:24;96727.03;;;24.44;63.60
20971;BME280;10644;48.834;10.088;2023-06-22T00:56:54;96718.19;;;24.53;63.46
20971;BME280;10644;48.834;10.088;2023-06-22T00:59:22;96721.47;;;24.63;63.01
20971;BME280;10644;48.834;10.088;2023-06-22T01:01:51;96714.56;;;24.78;62.38
20971;BME280;10644;48.834;10.088;2023-06-22T01:04:17;96721.06;;;24.90;61.94
20971;BME280;10644;48.834;10.088;2023-06-22T01:07:24;96704.75;;;24.64;62.46
20971;BME280;10644;48.834;10.088;2023-06-22T01:12:45;96707.38;;;24.48;63.14
20971;BME280;10644;48.834;10.088;2023-06-22T01:15:48;96708.41;;;24.31;63.50
20971;BME280;10644;48.834;10.088;2023-06-22T01:18:17;96707.44;;;24.16;64.23
20971;BME280;10644;48.834;10.088;2023-06-22T01:20:42;96714.31;;;24.25;64.07
20971;BME280;10644;48.834;10.088;2023-06-22T01:23:29;96714.16;;;24.18;64.27
20971;BME280;10644;48.834;10.088;2023-06-22T01:26:38;96699.91;;;24.21;63.49
20971;BME280;10644;48.834;10.088;2023-06-22T01:29:06;96712.66;;;24.32;63.85
20971;BME280;10644;48.834;10.088;2023-06-22T01:31:34;96717.22;;;24.38;63.29
20971;BME280;10644;48.834;10.088;2023-06-22T01:34:07;96725.41;;;24.43;63.32
20971;BME280;10644;48.834;10.088;2023-06-22T01:36:41;96709.41;;;24.22;63.68
20971;BME280;10644;48.834;10.088;2023-06-22T01:39:08;96720.19;;;24.27;63.33
20971;BME280;10644;48.834;10.088;2023-06-22T01:41:38;96711.84;;;24.47;62.78
20971;BME280;10644;48.834;10.088;2023-06-22T01:44:07;96711.84;;;24.47;62.92
20971;BME280;10644;48.834;10.088;2023-06-22T01:46:35;96713.78;;;24.61;62.61
20971;BME280;10644;48.834;10.088;2023-06-22T01:49:07;96713.31;;;24.26;63.25
20971;BME280;10644;48.834;10.088;2023-06-22T01:51:33;96713.03;;;24.13;63.86
20971;BME280;10644;48.834;10.088;2023-06-22T01:54:01;96715.97;;;24.02;64.56
20971;BME280;10644;48.834;10.088;2023-06-22T01:56:29;96714.84;;;23.96;64.61
20971;BME280;10644;48.834;10.088;2023-06-22T01:59:09;96728.88;;;23.87;64.66
20971;BME280;10644;48.834;10.088;2023-06-22T02:02:06;96730.19;;;24.07;64.49
20971;BME280;10644;48.834;10.088;2023-06-22T02:07:10;96738.41;;;23.96;64.56
20971;BME280;10644;48.834;10.088;2023-06-22T02:09:43;96758.84;;;24.09;64.33
20971;BME280;10644;48.834;10.088;2023-06-22T02:12:15;96760.47;;;24.02;64.68
20971;BME280;10644;48.834;10.088;2023-06-22T02:14:45;96767.78;;;23.82;65.14
20971;BME280;10644;48.834;10.088;2023-06-22T02:17:16;96750.31;;;23.91;64.57
20971;BME280;10644;48.834;10.088;2023-06-22T02:19:45;96763.94;;;24.02;64.34
20971;BME280;10644;48.834;10.088;2023-06-22T02:22:11;96747.56;;;24.08;64.14
20971;BME280;10644;48.834;10.088;2023-06-22T02:24:42;96783.72;;;24.21;63.87
20971;BME280;10644;48.834;10.088;2023-06-22T02:27:08;96773.22;;;24.21;63.93
20971;BME280;10644;48.834;10.088;2023-06-22T02:29:33;96770.47;;;24.30;63.56
20971;BME280;10644;48.834;10.088;2023-06-22T02:32:01;96756.88;;;24.35;62.93
20971;BME280;10644;48.834;10.088;2023-06-22T02:34:27;96753.75;;;24.23;63.37
20971;BME280;10644;48.834;10.088;2023-06-22T02:36:52;96755.06;;;24.43;62.89
20971;BME280;10644;48.834;10.088;2023-06-22T02:39:21;96749.00;;;24.51;62.79
20971;BME280;10644;48.834;10.088;2023-06-22T02:41:54;96742.13;;;24.50;62.19
20971;BME280;10644;48.834;10.088;2023-06-22T02:44:25;96763.25;;;24.64;61.92
20971;BME280;10644;48.834;10.088;2023-06-22T02:46:53;96765.38;;;24.45;62.34
20971;BME280;10644;48.834;10.088;2023-06-22T02:49:22;96748.19;;;24.34;62.40
20971;BME280;10644;48.834;10.088;2023-06-22T02:51:57;96739.84;;;24.23;62.92
20971;BME280;10644;48.834;10.088;2023-06-22T02:54:23;96751.13;;;24.23;62.88
20971;BME280;10644;48.834;10.088;2023-06-22T02:56:50;96758.84;;;24.25;62.88
20971;BME280;10644;48.834;10.088;2023-06-22T02:59:18;96743.78;;;24.19;62.89
20971;BME280;10644;48.834;10.088;2023-06-22T03:01:51;96749.34;;;24.16;63.33
20971;BME280;10644;48.834;10.088;2023-06-22T03:04:19;96749.69;;;24.05;63.41
20971;BME280;10644;48.834;10.088;2023-06-22T03:06:44;96746.41;;;24.19;63.43
20971;BME280;10644;48.834;10.088;2023-06-22T03:09:10;96740.16;;;24.20;63.27
20971;BME280;10644;48.834;10.088;2023-06-22T03:11:44;96747.06;;;24.05;63.38
20971;BME280;10644;48.834;10.088;2023-06-22T03:14:15;96735.94;;;24.11;63.70
20971;BME280;10644;48.834;10.088;2023-06-22T03:16:43;96718.56;;;24.10;63.15
20971;BME280;10644;48.834;10.088;2023-06-22T03:19:09;96734.94;;;24.20;63.15
20971;BME280;10644;48.834;10.088;2023-06-22T03:21:34;96725.75;;;24.16;63.55
20971;BME280;10644;48.834;10.088;2023-06-22T03:24:00;96723.00;;;24.25;63.00
20971;BME280;10644;48.834;10.088;2023-06-22T03:26:27;96729.38;;;24.39;62.46
20971;BME280;10644;48.834;10.088;2023-06-22T03:28:52;96726.25;;;24.43;62.65
20971;BME280;10644;48.834;10.088;2023-06-22T03:31:21;96730.97;;;24.48;62.27
20971;BME280;10644;48.834;10.088;2023-06-22T03:33:47;96722.16;;;24.41;62.23
20971;BME280;10644;48.834;10.088;2023-06-22T03:36:14;96721.84;;;24.12;63.08
20971;BME280;10644;48.834;10.088;2023-06-22T03:38:47;96731.00;;;23.92;64.00
20971;BME280;10644;48.834;10.088;2023-06-22T03:41:15;96717.28;;;23.98;63.68
20971;BME280;10644;48.834;10.088;2023-06-22T03:43:40;96705.97;;;24.05;63.76
20971;BME280;10644;48.834;10.088;2023-06-22T03:46:06;96708.25;;;24.16;63.31
20971;BME280;10644;48.834;10.088;2023-06-22T03:48:31;96702.84;;;24.26;63.08
20971;BME280;10644;48.834;10.088;2023-06-22T03:50:59;96708.72;;;24.36;62.66
20971;BME280;10644;48.834;10.088;2023-06-22T03:53:30;96699.56;;;24.40;62.50
20971;BME280;10644;48.834;10.088;2023-06-22T03:55:55;96712.00;;;24.38;62.48
20971;BME280;10644;48.834;10.088;2023-06-22T03:58:21;96695.34;;;24.23;62.79
20971;BME280;10644;48.834;10.088;2023-06-22T04:00:50;96696.34;;;24.06;63.23
20971;BME280;10644;48.834;10.088;2023-06-22T04:03:16;96698.59;;;23.77;63.73
20971;BME280;10644;48.834;10.088;2023-06-22T04:05:44;96694.81;;;23.47;65.08
20971;BME280;10644;48.834;10.088;2023-06-22T04:08:09;96699.72;;;23.50;65.19
20971;BME280;10644;48.834;10.088;2023-06-22T04:10:35;96707.09;;;23.55;64.89
20971;BME280;10644;48.834;10.088;2023-06-22T04:13:00;96698.72;;;23.35;65.63
20971;BME280;10644;48.834;10.088;2023-06-22T04:15:25;96695.59;;;23.32;65.60
20971;BME280;10644;48.834;10.088;2023-06-22T04:17:51;96708.38;;;23.43;65.72
20971;BME280;10644;48.834;10.088;2023-06-22T04:20:16;96708.34;;;23.35;65.96
20971;BME280;10644;48.834;10.088;2023-06-22T04:22:42;96706.69;;;23.26;66.39
20971;BME280;10644;48.834;10.088;2023-06-22T04:25:07;96709.97;;;23.28;66.40
20971;BME280;10644;48.834;10.088;2023-06-22T04:27:33;96721.56;;;23.33;66.01
20971;BME280;10644;48.834;10.088;2023-06-22T04:30:08;96716.84;;;23.29;66.34
20971;BME280;10644;48.834;10.088;2023-06-22T04:32:34;96708.38;;;23.43;66.26
20971;BME280;10644;48.834;10.088;2023-06-22T04:35:03;96710.19;;;23.66;65.23
20971;BME280;10644;48.834;10.088;2023-06-22T04:37:33;96703.16;;;23.59;65.42
20971;BME280;10644;48.834;10.088;2023-06-22T04:39:58;96695.81;;;23.70;65.00
20971;BME280;10644;48.834;10.088;2023-06-22T04:42:26;96701.84;;;23.55;65.42
20971;BME280;10644;48.834;10.088;2023-06-22T04:44:51;96692.69;;;23.59;65.56
20971;BME280;10644;48.834;10.088;2023-06-22T04:47:17;96694.72;;;23.89;64.76
20971;BME280;10644;48.834;10.088;2023-06-22T04:49:42;96689.13;;;23.84;64.78
20971;BME280;10644;48.834;10.088;2023-06-22T04:52:10;96687.34;;;23.92;64.71
20971;BME280;10644;48.834;10.088;2023-06-22T04:54:36;96680.81;;;23.96;64.68
20971;BME280;10644;48.834;10.088;2023-06-22T04:57:03;96676.50;;;23.87;64.50
20971;BME280;10644;48.834;10.088;2023-06-22T04:59:30;96681.59;;;23.97;64.92
20971;BME280;10644;48.834;10.088;2023-06-22T05:02:00;96681.09;;;23.77;65.27
20971;BME280;10644;48.834;10.088;2023-06-22T05:04:28;96682.59;;;23.96;65.07
20971;BME280;10644;48.834;10.088;2023-06-22T05:06:56;96682.56;;;24.04;64.61
20971;BME280;10644;48.834;10.088;2023-06-22T05:09:23;96680.78;;;24.04;64.56
20971;BME280;10644;48.834;10.088;2023-06-22T05:11:50;96675.72;;;24.11;64.07
20971;BME280;10644;48.834;10.088;2023-06-22T05:14:15;96659.97;;;24.19;63.84
20971;BME280;10644;48.834;10.088;2023-06-22T05:16:41;96651.50;;;24.01;64.87
20971;BME280;10644;48.834;10.088;2023-06-22T05:19:07;96655.06;;;24.24;64.01
20971;BME280;10644;48.834;10.088;2023-06-22T05:21:33;96642.28;;;24.21;63.41
20971;BME280;10644;48.834;10.088;2023-06-22T05:23:58;96653.63;;;24.13;63.93
20971;BME280;10644;48.834;10.088;2023-06-22T05:26:26;96647.88;;;24.18;63.96
20971;BME280;10644;48.834;10.088;2023-06-22T05:28:51;96645.56;;;24.23;63.49
20971;BME280;10644;48.834;10.088;2023-06-22T05:31:17;96641.97;;;24.24;63.41
20971;BME280;10644;48.834;10.088;2023-06-22T05:33:45;96644.38;;;24.41;63.41
20971;BME280;10644;48.834;10.088;2023-06-22T05:36:11;96649.47;;;24.27;63.62
20971;BME280;10644;48.834;10.088;2023-06-22T05:38:38;96632.16;;;24.18;64.28
20971;BME280;10644;48.834;10.088;2023-06-22T05:41:04;96632.59;;;24.29;63.61
20971;BME280;10644;48.834;10.088;2023-06-22T05:43:32;96630.34;;;24.26;63.86
20971;BME280;10644;48.834;10.088;2023-06-22T05:46:01;96631.78;;;24.37;63.38
20971;BME280;10644;48.834;10.088;2023-06-22T05:48:27;96625.50;;;24.62;62.71
20971;BME280;10644;48.834;10.088;2023-06-22T05:51:02;96610.09;;;24.59;62.52
20971;BME280;10644;48.834;10.088;2023-06-22T05:53:54;96611.75;;;24.60;62.38
20971;BME280;10644;48.834;10.088;2023-06-22T05:56:22;96613.38;;;24.61;62.17
20971;BME280;10644;48.834;10.088;2023-06-22T06:01:38;96618.59;;;24.61;62.26
20971;BME280;10644;48.834;10.088;2023-06-22T06:04:05;96608.56;;;24.34;62.61
20971;BME280;10644;48.834;10.088;2023-06-22T06:06:33;96599.72;;;24.27;63.07
20971;BME280;10644;48.834;10.088;2023-06-22T06:09:00;96609.09;;;24.05;63.36
20971;BME280;10644;48.834;10.088;2023-06-22T06:11:28;96607.31;;;24.06;63.56
20971;BME280;10644;48.834;10.088;2023-06-22T06:13:53;96609.22;;;24.20;63.83
20971;BME280;10644;48.834;10.088;2023-06-22T06:16:19;96595.50;;;24.18;63.22
20971;BME280;10644;48.834;10.088;2023-06-22T06:18:44;96597.75;;;24.29;63.27
20971;BME280;10644;48.834;10.088;2023-06-22T06:21:10;96612.75;;;24.51;62.58
20971;BME280;10644;48.834;10.088;2023-06-22T06:23:35;96607.13;;;24.70;61.61
20971;BME280;10644;48.834;10.088;2023-06-22T06:26:00;96587.78;;;24.71;61.21
20971;BME280;10644;48.834;10.088;2023-06-22T06:28:28;96593.06;;;24.63;61.47
20971;BME280;10644;48.834;10.088;2023-06-22T06:30:54;96593.38;;;24.68;61.22
20971;BME280;10644;48.834;10.088;2023-06-22T06:33:19;96596.63;;;24.70;61.59
20971;BME280;10644;48.834;10.088;2023-06-22T06:35:46;96591.94;;;24.88;60.91
20971;BME280;10644;48.834;10.088;2023-06-22T06:38:11;96592.75;;;25.19;60.09
20971;BME280;10644;48.834;10.088;2023-06-22T06:40:37;96601.16;;;25.37;59.43
20971;BME280;10644;48.834;10.088;2023-06-22T06:43:02;96590.38;;;25.54;58.97
20971;BME280;10644;48.834;10.088;2023-06-22T06:45:30;96602.53;;;25.70;58.31
20971;BME280;10644;48.834;10.088;2023-06-22T06:47:58;96589.44;;;25.84;58.11
20971;BME280;10644;48.834;10.088;2023-06-22T06:50:23;96582.09;;;25.80;57.36
20971;BME280;10644;48.834;10.088;2023-06-22T06:52:51;96578.75;;;25.86;56.99
20971;BME280;10644;48.834;10.088;2023-06-22T06:55:17;96569.75;;;25.66;57.55
20971;BME280;10644;48.834;10.088;2023-06-22T06:57:44;96565.34;;;25.81;57.31
20971;BME280;10644;48.834;10.088;2023-06-22T07:00:14;96568.19;;;25.94;57.39
20971;BME280;10644;48.834;10.088;2023-06-22T07:02:44;96569.47;;;25.98;56.83
20971;BME280;10644;48.834;10.088;2023-06-22T07:05:11;96571.44;;;25.96;56.67
20971;BME280;10644;48.834;10.088;2023-06-22T07:07:37;96571.19;;;26.20;56.67
20971;BME280;10644;48.834;10.088;2023-06-22T07:10:03;96569.38;;;26.20;56.16
20971;BME280;10644;48.834;10.088;2023-06-22T07:12:29;96571.19;;;26.34;56.06
20971;BME280;10644;48.834;10.088;2023-06-22T07:15:01;96564.81;;;26.43;54.84
20971;BME280;10644;48.834;10.088;2023-06-22T07:17:31;96556.94;;;26.29;55.37
20971;BME280;10644;48.834;10.088;2023-06-22T07:19:56;96559.13;;;26.40;54.56
20971;BME280;10644;48.834;10.088;2023-06-22T07:22:22;96562.22;;;26.58;54.37
20971;BME280;10644;48.834;10.088;2023-06-22T07:24:50;96556.84;;;26.66;53.99
20971;BME280;10644;48.834;10.088;2023-06-22T07:27:18;96555.66;;;26.54;54.23
20971;BME280;10644;48.834;10.088;2023-06-22T07:29:46;96557.84;;;26.65;53.63
20971;BME280;10644;48.834;10.088;2023-06-22T07:32:12;96568.66;;;26.91;52.57
20971;BME280;10644;48.834;10.088;2023-06-22T07:34:40;96557.53;;;27.10;51.05
20971;BME280;10644;48.834;10.088;2023-06-22T07:37:09;96565.41;;;26.89;50.30
20971;BME280;10644;48.834;10.088;2023-06-22T07:39:34;96572.50;;;26.74;50.75
20971;BME280;10644;48.834;10.088;2023-06-22T07:42:00;96572.41;;;26.82;50.52
20971;BME280;10644;48.834;10.088;2023-06-22T07:44:28;96563.38;;;26.91;50.60
20971;BME280;10644;48.834;10.088;2023-06-22T07:46:53;96560.47;;;27.00;49.81
20971;BME280;10644;48.834;10.088;2023-06-22T07:49:19;96567.38;;;27.22;50.06
20971;BME280;10644;48.834;10.088;2023-06-22T07:51:45;96564.03;;;27.28;49.40
20971;BME280;10644;48.834;10.088;2023-06-22T07:54:10;96564.69;;;27.16;49.79
20971;BME280;10644;48.834;10.088;2023-06-22T07:56:36;96565.69;;;27.36;49.63
20971;BME280;10644;48.834;10.088;2023-06-22T07:59:04;96567.28;;;27.51;49.78
20971;BME280;10644;48.834;10.088;2023-06-22T08:01:30;96556.75;;;27.51;49.30
20971;BME280;10644;48.834;10.088;2023-06-22T08:03:55;96558.41;;;27.59;49.22
20971;BME280;10644;48.834;10.088;2023-06-22T08:06:21;96569.19;;;27.85;49.69
20971;BME280;10644;48.834;10.088;2023-06-22T08:08:46;96562.28;;;27.63;49.99
20971;BME280;10644;48.834;10.088;2023-06-22T08:11:14;96558.22;;;27.81;49.32
20971;BME280;10644;48.834;10.088;2023-06-22T08:13:52;96539.16;;;27.79;49.60
20971;BME280;10644;48.834;10.088;2023-06-22T08:16:26;96554.13;;;27.79;50.14
20971;BME280;10644;48.834;10.088;2023-06-22T08:18:55;96535.59;;;27.93;50.07
20971;BME280;10644;48.834;10.088;2023-06-22T08:21:20;96536.50;;;28.07;49.59
20971;BME280;10644;48.834;10.088;2023-06-22T08:23:45;96534.47;;;28.09;49.75
20971;BME280;10644;48.834;10.088;2023-06-22T08:26:11;96534.56;;;28.28;49.73
20971;BME280;10644;48.834;10.088;2023-06-22T08:28:36;96537.84;;;28.37;48.84
20971;BME280;10644;48.834;10.088;2023-06-22T08:31:02;96531.56;;;28.72;48.28
20971;BME280;10644;48.834;10.088;2023-06-22T08:33:28;96542.75;;;28.80;48.23
20971;BME280;10644;48.834;10.088;2023-06-22T08:35:54;96514.19;;;28.97;47.93
20971;BME280;10644;48.834;10.088;2023-06-22T08:38:20;96523.31;;;29.07;47.88
20971;BME280;10644;48.834;10.088;2023-06-22T08:40:45;96520.31;;;29.17;47.99
20971;BME280;10644;48.834;10.088;2023-06-22T08:43:14;96501.63;;;29.25;47.46
20971;BME280;10644;48.834;10.088;2023-06-22T08:45:39;96494.50;;;29.12;48.33
20971;BME280;10644;48.834;10.088;2023-06-22T08:48:05;96504.06;;;29.26;47.71
20971;BME280;10644;48.834;10.088;2023-06-22T08:50:31;96492.47;;;29.21;47.53
20971;BME280;10644;48.834;10.088;2023-06-22T08:52:56;96503.22;;;29.39;47.69
20971;BME280;10644;48.834;10.088;2023-06-22T08:55:22;96507.31;;;29.35;47.73
20971;BME280;10644;48.834;10.088;2023-06-22T08:57:47;96495.53;;;29.31;47.49
20971;BME280;10644;48.834;10.088;2023-06-22T09:00:16;96498.38;;;29.49;47.53
20971;BME280;10644;48.834;10.088;2023-06-22T09:02:46;96497.56;;;29.81;47.06
20971;BME280;10644;48.834;10.088;2023-06-22T09:05:12;96490.25;;;29.70;46.94
20971;BME280;10644;48.834;10.088;2023-06-22T09:07:40;96487.41;;;29.65;47.08
20971;BME280;10644;48.834;10.088;2023-06-22T09:10:06;96488.63;;;29.69;47.00
20971;BME280;10644;48.834;10.088;2023-06-22T09:12:33;96487.84;;;29.62;47.05
20971;BME280;10644;48.834;10.088;2023-06-22T09:14:59;96486.63;;;29.58;46.68
20971;BME280;10644;48.834;10.088;2023-06-22T09:17:28;96493.88;;;29.75;46.94
20971;BME280;10644;48.834;10.088;2023-06-22T09:19:54;96491.88;;;29.71;46.83
20971;BME280;10644;48.834;10.088;2023-06-22T09:22:19;96489.16;;;30.03;46.43
20971;BME280;10644;48.834;10.088;2023-06-22T09:24:45;96501.56;;;30.16;45.81
20971;BME280;10644;48.834;10.088;2023-06-22T09:27:10;96499.09;;;30.21;45.62
20971;BME280;10644;48.834;10.088;2023-06-22T09:29:36;96507.22;;;30.26;45.86
20971;BME280;10644;48.834;10.088;2023-06-22T09:32:01;96506.00;;;30.22;45.95
20971;BME280;10644;48.834;10.088;2023-06-22T09:34:27;96533.75;;;30.70;45.43
20971;BME280;10644;48.834;10.088;2023-06-22T09:36:53;96531.03;;;30.76;44.93
20971;BME280;10644;48.834;10.088;2023-06-22T09:39:18;96529.75;;;30.92;45.16
20971;BME280;10644;48.834;10.088;2023-06-22T09:41:44;96537.31;;;31.26;44.26
20971;BME280;10644;48.834;10.088;2023-06-22T09:44:45;96527.16;;;31.47;44.52
20971;BME280;10644;48.834;10.088;2023-06-22T09:47:10;96529.22;;;31.70;43.76
20971;BME280;10644;48.834;10.088;2023-06-22T09:49:39;96521.97;;;31.59;43.98
20971;BME280;10644;48.834;10.088;2023-06-22T09:52:07;96533.91;;;31.43;44.30
20971;BME280;10644;48.834;10.088;2023-06-22T09:54:41;96545.44;;;31.55;43.92
20971;BME280;10644;48.834;10.088;2023-06-22T09:57:20;96528.13;;;31.53;44.39
20971;BME280;10644;48.834;10.088;2023-06-22T09:59:49;96541.72;;;31.87;43.88
20971;BME280;10644;48.834;10.088;2023-06-22T10:04:55;96531.09;;;32.30;42.74
20971;BME280;10644;48.834;10.088;2023-06-22T10:10:15;96539.19;;;32.71;42.48
20971;BME280;10644;48.834;10.088;2023-06-22T10:12:56;96527.47;;;33.08;42.46
20971;BME280;10644;48.834;10.088;2023-06-22T10:15:27;96514.13;;;33.26;41.32
20971;BME280;10644;48.834;10.088;2023-06-22T10:21:18;96521.13;;;33.50;41.00
20971;BME280;10644;48.834;10.088;2023-06-22T10:24:02;96507.66;;;33.86;41.21
20971;BME280;10644;48.834;10.088;2023-06-22T10:27:10;96496.09;;;33.92;40.14
20971;BME280;10644;48.834;10.088;2023-06-22T10:43:41;96458.53;;;33.88;40.16
20971;BME280;10644;48.834;10.088;2023-06-22T11:00:15;96471.22;;;34.60;38.97
20971;BME280;10644;48.834;10.088;2023-06-22T11:03:11;96463.50;;;34.87;39.45
20971;BME280;10644;48.834;10.088;2023-06-22T11:05:40;96462.84;;;35.13;37.98
20971;BME280;10644;48.834;10.088;2023-06-22T11:08:24;96463.75;;;34.74;38.57
20971;BME280;10644;48.834;10.088;2023-06-22T11:14:25;96439.78;;;35.02;38.43
20971;BME280;10644;48.834;10.088;2023-06-22T11:16:53;96445.44;;;35.05;38.03
20971;BME280;10644;48.834;10.088;2023-06-22T11:39:56;96445.28;;;35.45;35.78
20971;BME280;10644;48.834;10.088;2023-06-22T11:45:55;96442.84;;;35.76;35.93
20971;BME280;10644;48.834;10.088;2023-06-22T11:52:13;96436.53;;;35.66;36.24
20971;BME280;10644;48.834;10.088;2023-06-22T12:15:43;96409.84;;;36.95;33.98
20971;BME280;10644;48.834;10.088;2023-06-22T12:19:02;96404.63;;;36.14;35.58
20971;BME280;10644;48.834;10.088;2023-06-22T12:21:27;96407.81;;;36.11;36.22
20971;BME280;10644;48.834;10.088;2023-06-22T12:24:18;96424.50;;;36.18;36.47
20971;BME280;10644;48.834;10.088;2023-06-22T12:26:57;96417.66;;;36.27;35.95
20971;BME280;10644;48.834;10.088;2023-06-22T12:29:34;96423.13;;;36.37;35.90
20971;BME280;10644;48.834;10.088;2023-06-22T12:32:29;96416.84;;;36.26;35.67
20971;BME280;10644;48.834;10.088;2023-06-22T12:35:04;96404.91;;;36.34;35.66
20971;BME280;10644;48.834;10.088;2023-06-22T12:37:57;96422.50;;;36.30;35.37
20971;BME280;10644;48.834;10.088;2023-06-22T12:41:07;96424.00;;;36.21;34.52
20971;BME280;10644;48.834;10.088;2023-06-22T12:44:03;96414.41;;;35.82;36.14
20971;BME280;10644;48.834;10.088;2023-06-22T12:47:00;96386.16;;;36.07;36.01
20971;BME280;10644;48.834;10.088;2023-06-22T12:50:11;96380.41;;;36.37;36.20
20971;BME280;10644;48.834;10.088;2023-06-22T12:53:06;96384.28;;;36.51;35.82
20971;BME280;10644;48.834;10.088;2023-06-22T12:55:52;96397.31;;;36.04;35.68
20971;BME280;10644;48.834;10.088;2023-06-22T13:08:30;96392.38;;;35.91;36.25
20971;BME280;10644;48.834;10.088;2023-06-22T13:11:38;96406.81;;;36.17;36.77
20971;BME280;10644;48.834;10.088;2023-06-22T13:15:05;96408.81;;;36.05;36.38
20971;BME280;10644;48.834;10.088;2023-06-22T13:18:04;96402.66;;;36.21;35.98
20971;BME280;10644;48.834;10.088;2023-06-22T13:27:25;96407.34;;;36.62;35.92
20971;BME280;10644;48.834;10.088;2023-06-22T13:30:19;96402.19;;;36.77;36.11
20971;BME280;10644;48.834;10.088;2023-06-22T13:33:02;96397.53;;;36.67;35.84
20971;BME280;10644;48.834;10.088;2023-06-22T13:35:39;96406.66;;;36.45;36.11
20971;BME280;10644;48.834;10.088;2023-06-22T13:38:15;96401.59;;;36.22;36.52
20971;BME280;10644;48.834;10.088;2023-06-22T13:41:00;96402.59;;;35.99;36.29
20971;BME280;10644;48.834;10.088;2023-06-22T13:43:31;96401.88;;;36.04;36.85
20971;BME280;10644;48.834;10.088;2023-06-22T13:46:15;96402.19;;;36.07;37.18
20971;BME280;10644;48.834;10.088;2023-06-22T13:55:33;96389.56;;;36.03;37.35
20971;BME280;10644;48.834;10.088;2023-06-22T13:58:25;96370.31;;;36.01;37.02
20971;BME280;10644;48.834;10.088;2023-06-22T14:01:15;96382.13;;;36.26;36.74
20971;BME280;10644;48.834;10.088;2023-06-22T14:04:15;96380.13;;;36.17;36.54
20971;BME280;10644;48.834;10.088;2023-06-22T14:07:04;96377.94;;;36.14;36.34
20971;BME280;10644;48.834;10.088;2023-06-22T14:09:45;96374.31;;;36.20;36.10
20971;BME280;10644;48.834;10.088;2023-06-22T14:12:27;96387.00;;;36.13;36.16
20971;BME280;10644;48.834;10.088;2023-06-22T14:15:20;96373.53;;;36.03;36.21
20971;BME280;10644;48.834;10.088;2023-06-22T14:18:18;96372.44;;;35.99;36.08
20971;BME280;10644;48.834;10.088;2023-06-22T14:20:53;96356.53;;;35.87;35.89
20971;BME280;10644;48.834;10.088;2023-06-22T14:26:27;96319.06;;;35.99;35.89
20971;BME280;10644;48.834;10.088;2023-06-22T14:28:53;96316.88;;;35.96;35.79
20971;BME280;10644;48.834;10.088;2023-06-22T14:31:30;96319.44;;;35.86;36.00
20971;BME280;10644;48.834;10.088;2023-06-22T14:34:22;96325.75;;;35.80;36.38
20971;BME280;10644;48.834;10.088;2023-06-22T14:43:31;96344.66;;;35.57;36.82
20971;BME280;10644;48.834;10.088;2023-06-22T14:46:13;96324.22;;;35.46;36.94
20971;BME280;10644;48.834;10.088;2023-06-22T14:49:26;96328.72;;;35.62;36.43
20971;BME280;10644;48.834;10.088;2023-06-22T14:52:27;96308.81;;;35.91;36.18
20971;BME280;10644;48.834;10.088;2023-06-22T14:55:07;96311.41;;;36.07;36.07
20971;BME280;10644;48.834;10.088;2023-06-22T14:57:50;96295.72;;;36.11;35.85
20971;BME280;10644;48.834;10.088;2023-06-22T15:01:26;96286.34;;;36.35;34.68
20971;BME280;10644;48.834;10.088;2023-06-22T15:04:49;96284.56;;;36.40;33.20
20971;BME280;10644;48.834;10.088;2023-06-22T15:07:33;96290.69;;;36.41;33.32
20971;BME280;10644;48.834;10.088;2023-06-22T15:13:33;96286.25;;;36.25;33.36
20971;BME280;10644;48.834;10.088;2023-06-22T15:16:20;96286.09;;;36.10;33.65
20971;BME280;10644;48.834;10.088;2023-06-22T15:19:37;96287.69;;;36.11;34.10
20971;BME280;10644;48.834;10.088;2023-06-22T15:22:32;96279.81;;;36.21;32.35
20971;BME280;10644;48.834;10.088;2023-06-22T15:28:13;96291.84;;;36.50;31.24
20971;BME280;10644;48.834;10.088;2023-06-22T15:35:03;96290.56;;;36.57;33.15
20971;BME280;10644;48.834;10.088;2023-06-22T15:44:46;96271.50;;;36.44;31.43